Time;durP1;ratioP1;P1;durP2;ratioP2;P2;SDS_P1;SDS_P2;PMS_P1;PMS_P2;Temp;Humidity;BMP_temperature;BMP_pressure;BME280_temperature;BME280_humidity;BME280_pressure;Samples;Min_cycle;Max_cycle;Signal;HPM_P1;HPM_P2
2020/12/01 00:01:40;;;;;;;0.00;0.00;;;7.30;99.90;;;;;;5048865;28;20214;-73
2020/12/01 00:04:06;;;;;;;0.00;0.00;;;7.20;99.90;;;;;;5045788;28;20680;-75
2020/12/01 00:06:33;;;;;;;0.00;0.00;;;7.20;99.90;;;;;;5044181;28;21180;-73
2020/12/01 00:09:00;;;;;;;0.00;0.00;;;7.20;99.90;;;;;;5041249;28;20199;-74
2020/12/01 00:11:27;;;;;;;0.00;0.00;;;7.20;99.90;;;;;;5042398;28;20226;-73
2020/12/01 00:13:53;;;;;;;0.00;0.00;;;7.10;99.90;;;;;;5042180;28;21081;-74
2020/12/01 00:16:20;;;;;;;0.00;0.00;;;7.10;99.90;;;;;;5044180;28;20206;-74
2020/12/01 00:18:47;;;;;;;0.00;0.00;;;7.00;99.90;;;;;;5041153;28;21014;-72
2020/12/01 00:21:15;;;;;;;0.00;0.00;;;7.00;99.90;;;;;;5047839;28;20673;-74
2020/12/01 00:23:41;;;;;;;0.00;0.00;;;7.10;99.90;;;;;;5043629;28;20563;-74
2020/12/01 00:26:09;;;;;;;0.00;0.00;;;7.10;99.90;;;;;;5046660;28;20215;-74
2020/12/01 00:28:36;;;;;;;0.00;0.00;;;7.20;99.90;;;;;;5044751;28;20202;-75
2020/12/01 00:31:03;;;;;;;2.53;1.13;;;7.20;99.90;;;;;;5048772;28;20207;-72
2020/12/01 00:33:30;;;;;;;0.00;0.00;;;7.20;99.90;;;;;;5048480;28;20195;-72
2020/12/01 00:35:56;;;;;;;0.00;0.00;;;7.20;99.90;;;;;;5053841;28;20195;-74
2020/12/01 00:38:23;;;;;;;0.00;0.00;;;7.10;99.90;;;;;;5045924;28;20227;-71
2020/12/01 00:40:50;;;;;;;0.00;0.00;;;7.20;99.90;;;;;;5047891;28;20616;-74
2020/12/01 00:43:18;;;;;;;0.00;0.00;;;7.20;99.90;;;;;;5051159;28;20198;-72
2020/12/01 00:45:45;;;;;;;0.00;0.00;;;7.20;99.90;;;;;;5052884;28;20217;-74
2020/12/01 00:48:13;;;;;;;0.00;0.00;;;7.20;99.90;;;;;;5062116;28;20203;-73
2020/12/01 00:50:39;;;;;;;0.00;0.00;;;7.20;99.90;;;;;;5048650;28;20198;-74
2020/12/01 00:53:06;;;;;;;0.00;0.00;;;7.20;99.90;;;;;;5047443;28;20207;-72
2020/12/01 00:55:33;;;;;;;0.00;0.00;;;7.10;99.90;;;;;;5042620;28;20209;-73
2020/12/01 00:57:59;;;;;;;0.00;0.00;;;7.10;99.90;;;;;;5052737;28;20355;-72
2020/12/01 01:00:28;;;;;;;0.93;0.93;;;7.10;99.90;;;;;;5060277;28;20203;-74
2020/12/01 01:02:55;;;;;;;0.17;0.17;;;7.00;99.90;;;;;;5064258;28;20206;-73
2020/12/01 01:05:22;;;;;;;0.00;0.00;;;7.00;99.90;;;;;;5056211;28;20199;-74
2020/12/01 01:07:49;;;;;;;0.00;0.00;;;6.90;99.90;;;;;;5047721;28;20237;-74
2020/12/01 01:10:18;;;;;;;0.00;0.00;;;6.90;99.90;;;;;;5045998;28;20214;-74
2020/12/01 01:12:45;;;;;;;0.93;0.93;;;6.90;99.90;;;;;;5045280;28;20203;-72
2020/12/01 01:15:11;;;;;;;0.00;0.00;;;6.90;99.90;;;;;;5046091;28;20195;-71
2020/12/01 01:17:39;;;;;;;0.00;0.00;;;6.90;99.90;;;;;;5050579;28;20976;-73
2020/12/01 01:20:06;;;;;;;0.63;0.63;;;6.90;99.90;;;;;;5051961;28;20200;-73
2020/12/01 01:22:33;;;;;;;0.00;0.00;;;6.90;99.90;;;;;;5047953;28;20210;-74
2020/12/01 01:25:00;;;;;;;0.00;0.00;;;6.90;99.90;;;;;;5050435;28;20199;-74
2020/12/01 01:27:26;;;;;;;0.00;0.00;;;6.90;99.90;;;;;;5045052;28;20203;-74
2020/12/01 01:29:53;;;;;;;0.00;0.00;;;7.00;99.90;;;;;;5049520;28;20199;-74
2020/12/01 01:32:19;;;;;;;0.00;0.00;;;7.10;99.90;;;;;;5047270;28;20211;-73
2020/12/01 01:34:47;;;;;;;0.57;0.57;;;7.10;99.90;;;;;;5060675;28;20214;-72
2020/12/01 01:37:14;;;;;;;0.00;0.00;;;7.10;99.90;;;;;;5056200;28;20210;-73
2020/12/01 01:39:40;;;;;;;0.00;0.00;;;7.10;99.90;;;;;;5046004;28;20204;-75
2020/12/01 01:42:08;;;;;;;0.50;0.50;;;7.10;99.90;;;;;;5044932;28;20203;-72
2020/12/01 01:44:35;;;;;;;0.00;0.00;;;7.00;99.90;;;;;;5043910;28;20207;-73
2020/12/01 01:47:06;;;;;;;0.00;0.00;;;6.90;99.90;;;;;;5051307;28;20656;-75
2020/12/01 01:49:37;;;;;;;0.00;0.00;;;6.80;99.90;;;;;;5048138;28;20207;-75
2020/12/01 01:52:12;;;;;;;0.00;0.00;;;6.80;99.90;;;;;;5058300;28;20203;-75
2020/12/01 01:54:40;;;;;;;0.00;0.00;;;6.70;99.90;;;;;;5048821;28;20214;-73
2020/12/01 01:57:10;;;;;;;0.00;0.00;;;6.70;99.90;;;;;;5047176;28;20571;-73
2020/12/01 01:59:37;;;;;;;0.00;0.00;;;6.80;99.90;;;;;;5046966;28;20202;-74
2020/12/01 02:02:04;;;;;;;0.00;0.00;;;7.00;99.90;;;;;;5048476;28;20199;-74
2020/12/01 02:04:31;;;;;;;0.00;0.00;;;7.10;99.90;;;;;;5046553;28;20199;-73
2020/12/01 02:07:01;;;;;;;0.00;0.00;;;7.10;99.90;;;;;;5041744;28;20226;-74
2020/12/01 02:09:32;;;;;;;0.00;0.00;;;7.10;99.90;;;;;;5050056;28;20211;-73
2020/12/01 02:12:01;;;;;;;0.00;0.00;;;7.10;99.90;;;;;;5043918;28;20194;-74
2020/12/01 02:14:30;;;;;;;0.00;0.00;;;7.10;99.90;;;;;;5045360;28;20216;-74
2020/12/01 02:16:59;;;;;;;0.00;0.00;;;7.20;99.90;;;;;;5044990;28;20592;-72
2020/12/01 02:19:29;;;;;;;0.00;0.00;;;7.20;99.90;;;;;;5044928;28;20329;-74
2020/12/01 02:21:57;;;;;;;0.00;0.00;;;7.20;99.90;;;;;;5048351;28;20195;-74
2020/12/01 02:24:27;;;;;;;0.00;0.00;;;7.10;99.90;;;;;;5047473;28;20214;-73
2020/12/01 02:26:57;;;;;;;0.00;0.00;;;7.00;99.90;;;;;;5047529;28;20206;-74
2020/12/01 02:29:27;;;;;;;0.37;0.30;;;6.90;99.90;;;;;;5043007;28;20198;-73
2020/12/01 02:31:54;;;;;;;2.00;1.90;;;6.90;99.90;;;;;;5044555;28;21689;-73
2020/12/01 02:34:24;;;;;;;0.00;0.00;;;6.80;99.90;;;;;;5041449;28;20207;-74
2020/12/01 02:36:51;;;;;;;0.00;0.00;;;6.80;99.90;;;;;;5053006;28;20261;-74
2020/12/01 02:39:22;;;;;;;1.70;1.23;;;6.90;99.90;;;;;;5047052;28;20234;-73
2020/12/01 02:41:48;;;;;;;0.00;0.00;;;7.00;99.90;;;;;;5049791;28;20202;-74
2020/12/01 02:44:16;;;;;;;0.40;0.40;;;7.00;99.90;;;;;;5042152;28;20207;-74
2020/12/01 02:46:43;;;;;;;0.00;0.00;;;7.10;99.90;;;;;;5045518;28;20572;-74
2020/12/01 02:49:09;;;;;;;0.00;0.00;;;7.20;99.90;;;;;;5048503;28;20203;-74
2020/12/01 02:51:36;;;;;;;0.00;0.00;;;7.20;99.90;;;;;;5044209;28;20195;-74
2020/12/01 02:54:03;;;;;;;0.00;0.00;;;7.20;99.90;;;;;;5059069;28;20203;-74
2020/12/01 02:56:30;;;;;;;0.00;0.00;;;7.20;99.90;;;;;;5052899;28;20200;-74
2020/12/01 02:58:56;;;;;;;0.00;0.00;;;7.20;99.90;;;;;;5043086;28;20695;-75
2020/12/01 03:01:24;;;;;;;0.00;0.00;;;7.30;99.90;;;;;;5059638;28;20214;-74
2020/12/01 03:03:50;;;;;;;0.00;0.00;;;7.30;99.90;;;;;;5058519;28;20777;-73
2020/12/01 03:06:19;;;;;;;0.00;0.00;;;7.30;99.90;;;;;;5058568;28;20219;-73
2020/12/01 03:08:46;;;;;;;0.00;0.00;;;7.30;99.90;;;;;;5059746;28;20202;-73
2020/12/01 03:11:13;;;;;;;0.00;0.00;;;7.30;99.90;;;;;;5058773;28;20544;-74
2020/12/01 03:13:39;;;;;;;0.00;0.00;;;7.30;99.90;;;;;;5059558;28;20206;-74
2020/12/01 03:16:07;;;;;;;2.30;2.20;;;7.40;99.90;;;;;;5058074;28;20206;-74
2020/12/01 03:18:34;;;;;;;0.30;0.30;;;7.40;99.90;;;;;;5056585;28;20313;-74
2020/12/01 03:21:01;;;;;;;0.00;0.00;;;7.50;99.90;;;;;;5054792;28;20334;-73
2020/12/01 03:23:28;;;;;;;0.00;0.00;;;7.40;99.90;;;;;;5047450;28;20226;-74
2020/12/01 03:25:54;;;;;;;0.00;0.00;;;7.40;99.90;;;;;;5043623;28;20195;-74
2020/12/01 03:28:21;;;;;;;0.00;0.00;;;7.40;99.90;;;;;;5042461;28;20214;-73
2020/12/01 03:30:47;;;;;;;0.00;0.00;;;7.40;99.90;;;;;;5045051;28;20194;-73
2020/12/01 03:33:14;;;;;;;0.00;0.00;;;7.40;99.90;;;;;;5045048;28;20203;-72
2020/12/01 03:35:42;;;;;;;0.00;0.00;;;7.40;99.90;;;;;;5041199;28;20215;-73
2020/12/01 03:38:08;;;;;;;0.00;0.00;;;7.40;99.90;;;;;;5045852;28;20591;-71
2020/12/01 03:40:35;;;;;;;0.00;0.00;;;7.50;99.90;;;;;;5058716;28;20206;-73
2020/12/01 03:43:02;;;;;;;0.00;0.00;;;7.50;99.90;;;;;;5058996;28;20206;-73
2020/12/01 03:45:28;;;;;;;0.53;0.50;;;7.50;99.90;;;;;;5059864;28;20206;-71
2020/12/01 03:47:56;;;;;;;0.00;0.00;;;7.50;99.90;;;;;;5057489;28;20558;-73
2020/12/01 03:50:23;;;;;;;0.00;0.00;;;7.50;99.90;;;;;;5060124;28;20672;-70
2020/12/01 03:52:51;;;;;;;0.00;0.00;;;7.50;99.90;;;;;;5058097;28;20214;-71
2020/12/01 03:55:18;;;;;;;0.00;0.00;;;7.50;99.90;;;;;;5058689;28;21204;-73
2020/12/01 03:57:45;;;;;;;0.00;0.00;;;7.50;99.90;;;;;;5057817;28;20206;-73
2020/12/01 04:00:14;;;;;;;0.00;0.00;;;7.50;99.90;;;;;;5059661;28;20210;-72
2020/12/01 04:02:40;;;;;;;0.00;0.00;;;7.60;99.90;;;;;;5043743;28;20199;-71
2020/12/01 04:05:07;;;;;;;0.00;0.00;;;7.60;99.90;;;;;;5050417;28;20195;-72
2020/12/01 04:07:34;;;;;;;0.10;0.10;;;7.70;99.90;;;;;;5063208;28;20595;-75
2020/12/01 04:10:01;;;;;;;0.00;0.00;;;7.80;99.90;;;;;;5061487;28;20207;-72
2020/12/01 04:12:28;;;;;;;0.00;0.00;;;7.90;99.90;;;;;;5060807;28;20289;-72
2020/12/01 04:14:56;;;;;;;0.00;0.00;;;7.90;99.90;;;;;;5064667;28;20198;-70
2020/12/01 04:17:23;;;;;;;0.00;0.00;;;7.90;99.90;;;;;;5062808;28;20663;-72
2020/12/01 04:19:50;;;;;;;0.00;0.00;;;8.00;99.90;;;;;;5059134;28;20219;-74
2020/12/01 04:22:17;;;;;;;0.00;0.00;;;8.00;99.90;;;;;;5050027;28;20675;-73
2020/12/01 04:24:43;;;;;;;0.00;0.00;;;7.90;99.90;;;;;;5053058;28;20211;-74
2020/12/01 04:27:13;;;;;;;0.00;0.00;;;7.90;99.90;;;;;;5052529;28;20329;-73
2020/12/01 04:29:40;;;;;;;0.00;0.00;;;7.80;99.90;;;;;;5044529;28;20203;-72
2020/12/01 04:32:07;;;;;;;0.10;0.10;;;7.80;99.90;;;;;;5046389;28;20195;-72
2020/12/01 04:34:34;;;;;;;0.00;0.00;;;7.80;99.90;;;;;;5047191;28;20198;-72
2020/12/01 04:37:02;;;;;;;0.00;0.00;;;7.70;99.90;;;;;;5046132;28;20199;-72
2020/12/01 04:39:29;;;;;;;0.00;0.00;;;7.60;99.90;;;;;;5046409;28;20583;-73
2020/12/01 04:41:56;;;;;;;0.00;0.00;;;7.60;99.90;;;;;;5048802;28;20565;-73
2020/12/01 04:44:28;;;;;;;0.00;0.00;;;7.60;99.90;;;;;;5061483;28;20199;-72
2020/12/01 04:46:56;;;;;;;0.00;0.00;;;7.60;99.90;;;;;;5059880;28;20198;-72
2020/12/01 04:49:26;;;;;;;0.00;0.00;;;7.60;99.90;;;;;;5060590;28;20207;-72
2020/12/01 04:52:23;;;;;;;0.00;0.00;;;7.70;99.90;;;;;;5060051;28;20607;-73
2020/12/01 04:55:32;;;;;;;0.20;0.20;;;7.80;99.90;;;;;;5060249;28;20249;-73
2020/12/01 04:58:33;;;;;;;0.10;0.10;;;7.80;99.90;;;;;;5063627;28;20217;-74
2020/12/01 05:01:10;;;;;;;0.00;0.00;;;7.90;99.90;;;;;;5059761;28;20195;-73
2020/12/01 05:03:53;;;;;;;0.00;0.00;;;7.90;99.90;;;;;;5064253;28;20556;-72
2020/12/01 05:07:00;;;;;;;17.33;0.90;;;7.90;99.90;;;;;;5059731;28;20315;-73
2020/12/01 05:09:37;;;;;;;0.00;0.00;;;7.90;99.90;;;;;;4969683;28;20191;-72
2020/12/01 05:12:09;;;;;;;0.00;0.00;;;7.90;99.90;;;;;;5042333;28;20676;-73
2020/12/01 05:14:38;;;;;;;0.00;0.00;;;7.90;99.90;;;;;;5053417;28;20295;-73
2020/12/01 05:17:48;;;;;;;0.00;0.00;;;7.90;99.90;;;;;;5061660;28;20195;-73
2020/12/01 05:20:15;;;;;;;4.27;2.20;;;7.90;99.90;;;;;;5020556;28;20216;-72
2020/12/01 05:22:47;;;;;;;0.00;0.00;;;7.90;99.90;;;;;;5047322;28;20191;-73
2020/12/01 05:25:21;;;;;;;0.00;0.00;;;8.00;99.90;;;;;;5055574;28;20203;-72
2020/12/01 05:27:48;;;;;;;0.00;0.00;;;8.00;99.90;;;;;;5057619;28;20187;-72
2020/12/01 05:30:18;;;;;;;0.50;0.50;;;8.00;99.90;;;;;;5053969;28;20199;-73
2020/12/01 05:32:54;;;;;;;0.00;0.00;;;8.00;99.90;;;;;;5054557;28;20187;-72
2020/12/01 05:35:23;;;;;;;0.03;0.03;;;8.00;99.90;;;;;;5055710;28;20651;-73
2020/12/01 05:37:57;;;;;;;0.57;0.43;;;8.00;99.90;;;;;;5052190;28;20214;-73
2020/12/01 05:40:25;;;;;;;0.00;0.00;;;8.00;99.90;;;;;;5051148;28;20197;-73
2020/12/01 05:42:51;;;;;;;0.50;0.50;;;8.00;99.90;;;;;;5055107;28;20561;-73
2020/12/01 05:45:23;;;;;;;0.00;0.00;;;8.00;99.90;;;;;;5052980;28;20210;-73
2020/12/01 05:47:55;;;;;;;0.00;0.00;;;8.00;99.90;;;;;;5056246;28;20733;-75
2020/12/01 05:50:24;;;;;;;0.00;0.00;;;8.10;99.90;;;;;;5053362;28;20203;-73
2020/12/01 05:53:03;;;;;;;0.20;0.20;;;8.00;99.90;;;;;;5053943;28;20203;-72
2020/12/01 05:55:30;;;;;;;0.00;0.00;;;8.10;99.90;;;;;;5053331;28;20191;-72
2020/12/01 05:57:59;;;;;;;0.00;0.00;;;8.10;99.90;;;;;;5053661;28;22555;-70
2020/12/01 06:00:29;;;;;;;0.00;0.00;;;8.00;99.90;;;;;;5056242;28;20195;-74
2020/12/01 06:03:22;;;;;;;0.00;0.00;;;8.10;99.90;;;;;;5055985;28;20341;-72
2020/12/01 06:05:50;;;;;;;0.00;0.00;;;8.10;99.90;;;;;;5058384;28;20202;-73
2020/12/01 06:08:30;;;;;;;0.20;0.20;;;8.00;99.90;;;;;;5053437;28;20239;-75
2020/12/01 06:11:03;;;;;;;0.00;0.00;;;8.00;99.90;;;;;;5057242;28;20199;-72
2020/12/01 06:13:35;;;;;;;0.40;0.40;;;8.00;99.90;;;;;;5053380;28;20198;-72
2020/12/01 06:16:17;;;;;;;0.20;0.20;;;8.10;99.90;;;;;;5052828;28;20191;-74
2020/12/01 06:18:51;;;;;;;2.73;2.37;;;8.10;99.90;;;;;;5053540;28;20250;-74
2020/12/01 06:21:32;;;;;;;18.90;2.67;;;8.00;99.90;;;;;;5054028;28;20652;-73
2020/12/01 06:24:26;;;;;;;30.40;3.50;;;8.10;99.90;;;;;;5051690;28;20195;-73
2020/12/01 06:27:31;;;;;;;29.40;5.10;;;8.10;99.90;;;;;;5022803;28;20210;-73
2020/12/01 06:30:22;;;;;;;30.10;4.87;;;8.10;99.90;;;;;;5057860;28;20199;-74
2020/12/01 06:33:22;;;;;;;18.63;4.47;;;8.10;99.90;;;;;;5056328;28;20200;-73
2020/12/01 06:36:36;;;;;;;24.40;4.17;;;8.10;99.90;;;;;;5057996;28;20199;-73
2020/12/01 06:39:23;;;;;;;16.80;4.20;;;8.10;99.90;;;;;;5054606;28;20238;-75
2020/12/01 06:41:56;;;;;;;23.83;3.93;;;8.10;99.90;;;;;;5053979;28;20195;-75
2020/12/01 06:44:26;;;;;;;18.73;4.23;;;8.00;99.90;;;;;;5052410;28;20424;-70
2020/12/01 06:46:55;;;;;;;23.73;4.33;;;8.00;99.90;;;;;;5055753;28;20676;-75
2020/12/01 06:49:24;;;;;;;23.33;5.13;;;8.10;99.90;;;;;;5060614;28;20196;-72
2020/12/01 06:51:53;;;;;;;25.90;4.40;;;8.10;99.90;;;;;;5052309;28;20204;-72
2020/12/01 06:54:21;;;;;;;26.33;4.60;;;8.10;99.90;;;;;;5054953;28;20206;-74
2020/12/01 06:57:00;;;;;;;22.93;4.03;;;8.20;99.90;;;;;;5052589;28;20206;-74
2020/12/01 06:59:26;;;;;;;18.13;4.10;;;8.20;99.90;;;;;;5054053;28;20234;-73
2020/12/01 07:02:04;;;;;;;19.30;3.77;;;8.20;99.90;;;;;;5055676;28;20195;-74
2020/12/01 07:04:30;;;;;;;23.13;4.20;;;8.20;99.90;;;;;;5052426;28;20727;-77
2020/12/01 07:06:59;;;;;;;18.17;3.87;;;8.20;99.90;;;;;;5059157;28;20235;-75
2020/12/01 07:09:31;;;;;;;18.47;3.60;;;8.20;99.90;;;;;;5055238;28;20824;-76
2020/12/01 07:12:30;;;;;;;23.63;4.77;;;8.30;99.90;;;;;;5055374;28;20227;-75
2020/12/01 07:15:01;;;;;;;14.57;3.37;;;8.30;99.90;;;;;;5052996;28;20668;-76
2020/12/01 07:17:52;;;;;;;17.93;4.00;;;8.30;99.90;;;;;;5051712;28;20195;-74
2020/12/01 07:20:37;;;;;;;16.10;3.77;;;8.30;99.90;;;;;;5053446;28;20699;-75
2020/12/01 07:23:32;;;;;;;17.30;3.97;;;8.20;99.90;;;;;;5050500;28;20361;-74
2020/12/01 07:26:07;;;;;;;19.87;3.20;;;8.20;99.90;;;;;;5052232;28;20202;-75
2020/12/01 07:28:39;;;;;;;20.77;5.53;;;8.10;99.90;;;;;;5052551;28;20206;-74
2020/12/01 07:31:27;;;;;;;24.93;4.60;;;8.10;99.90;;;;;;5051337;28;20202;-74
2020/12/01 07:33:57;;;;;;;15.73;3.90;;;8.00;99.90;;;;;;5054616;28;20199;-74
2020/12/01 07:36:30;;;;;;;19.53;4.40;;;8.00;99.90;;;;;;5052508;28;20217;-75
2020/12/01 07:39:14;;;;;;;23.23;4.73;;;8.00;99.90;;;;;;5056556;28;21473;-74
2020/12/01 07:41:54;;;;;;;17.50;3.90;;;8.10;99.90;;;;;;5051589;28;20203;-74
2020/12/01 07:44:24;;;;;;;22.57;4.43;;;8.20;99.90;;;;;;5054722;28;20245;-76
2020/12/01 07:47:05;;;;;;;28.97;4.80;;;8.20;99.90;;;;;;5048409;28;20204;-74
2020/12/01 07:49:33;;;;;;;20.93;3.70;;;8.20;99.90;;;;;;5060543;28;20231;-76
2020/12/01 07:52:06;;;;;;;21.07;4.30;;;8.30;99.90;;;;;;5061694;28;20194;-76
2020/12/01 07:54:36;;;;;;;19.60;3.77;;;8.40;99.90;;;;;;5066104;28;20575;-74
2020/12/01 07:57:12;;;;;;;18.67;4.07;;;8.40;99.90;;;;;;5060176;28;20203;-75
2020/12/01 07:59:42;;;;;;;17.93;3.97;;;8.40;99.90;;;;;;5060453;28;20214;-76
2020/12/01 08:02:09;;;;;;;16.37;3.37;;;8.40;99.90;;;;;;5058611;28;20203;-75
2020/12/01 08:04:36;;;;;;;16.10;2.73;;;8.40;99.90;;;;;;5051176;28;20679;-76
2020/12/01 08:07:04;;;;;;;18.93;3.27;;;8.40;99.90;;;;;;5056014;28;20235;-74
2020/12/01 08:09:31;;;;;;;12.20;3.20;;;8.40;99.90;;;;;;5053582;28;20206;-76
2020/12/01 08:12:03;;;;;;;11.23;2.60;;;8.40;99.90;;;;;;5055165;28;20203;-74
2020/12/01 08:14:30;;;;;;;13.50;3.73;;;8.40;99.90;;;;;;5050473;28;20246;-70
2020/12/01 08:17:06;;;;;;;21.17;4.40;;;8.50;99.90;;;;;;5050547;28;20199;-73
2020/12/01 08:19:33;;;;;;;16.80;5.33;;;8.50;99.90;;;;;;5065015;28;20207;-78
2020/12/01 08:22:01;;;;;;;18.53;3.23;;;8.60;99.90;;;;;;5060035;28;20210;-76
2020/12/01 08:24:30;;;;;;;10.13;2.80;;;8.70;99.90;;;;;;5060144;28;20203;-73
2020/12/01 08:27:05;;;;;;;14.03;2.90;;;8.70;99.90;;;;;;5060502;28;20282;-74
2020/12/01 08:29:35;;;;;;;12.90;3.53;;;8.80;99.90;;;;;;5060913;28;20277;-71
2020/12/01 08:32:10;;;;;;;12.17;3.27;;;8.80;99.90;;;;;;5061141;28;20195;-75
2020/12/01 08:34:45;;;;;;;14.07;3.57;;;8.80;99.90;;;;;;5065779;28;20203;-73
2020/12/01 08:37:38;;;;;;;11.13;3.23;;;8.80;99.90;;;;;;5060618;28;20234;-74
2020/12/01 08:40:11;;;;;;;12.67;2.97;;;8.80;99.90;;;;;;5064586;28;20987;-69
2020/12/01 08:42:57;;;;;;;17.77;3.73;;;8.80;99.90;;;;;;5059871;28;20555;-73
2020/12/01 08:45:38;;;;;;;21.13;3.93;;;8.90;99.90;;;;;;5059910;28;20202;-74
2020/12/01 08:48:14;;;;;;;16.57;4.20;;;8.90;99.90;;;;;;5064318;28;20215;-72
2020/12/01 08:50:42;;;;;;;17.43;3.27;;;8.90;99.90;;;;;;5065064;28;20202;-71
2020/12/01 08:53:11;;;;;;;12.03;3.20;;;9.00;99.90;;;;;;5065587;28;20203;-75
2020/12/01 08:55:47;;;;;;;14.17;3.87;;;9.00;99.90;;;;;;5060989;28;20199;-77
2020/12/01 08:58:22;;;;;;;14.13;3.37;;;9.10;99.90;;;;;;5060393;28;20198;-74
2020/12/01 09:00:58;;;;;;;17.97;3.70;;;9.20;99.90;;;;;;5065978;28;20289;-69
2020/12/01 09:03:26;;;;;;;14.60;3.60;;;9.20;99.90;;;;;;5064081;28;20659;-71
2020/12/01 09:05:53;;;;;;;14.40;4.23;;;9.20;99.90;;;;;;5064330;28;20213;-74
2020/12/01 09:08:45;;;;;;;15.13;3.70;;;9.20;99.90;;;;;;5064478;28;20392;-74
2020/12/01 09:14:11;;;;;;;15.77;3.63;;;9.30;99.90;;;;;;5053365;28;20207;-73
2020/12/01 09:16:50;;;;;;;14.63;3.70;;;9.40;99.90;;;;;;5066838;28;20237;-72
2020/12/01 09:19:47;;;;;;;11.40;3.40;;;9.50;99.90;;;;;;5068046;28;20241;-74
2020/12/01 09:22:22;;;;;;;11.00;2.60;;;9.60;99.90;;;;;;5069098;28;20199;-72
2020/12/01 09:24:49;;;;;;;9.73;3.00;;;9.70;99.90;;;;;;5068871;28;20660;-73
2020/12/01 09:27:18;;;;;;;17.13;3.50;;;9.70;99.90;;;;;;5065512;28;23025;-71
2020/12/01 09:29:46;;;;;;;19.97;3.40;;;9.80;99.90;;;;;;5066844;28;20203;-70
2020/12/01 09:32:17;;;;;;;17.17;4.40;;;9.80;99.90;;;;;;5063521;28;20213;-73
2020/12/01 09:34:44;;;;;;;17.20;3.90;;;9.80;99.90;;;;;;5063807;28;20226;-73
2020/12/01 09:37:11;;;;;;;15.30;3.43;;;9.80;99.90;;;;;;5065365;28;20215;-73
2020/12/01 09:39:38;;;;;;;16.67;3.10;;;9.80;99.90;;;;;;5063465;28;20238;-72
2020/12/01 09:42:11;;;;;;;18.60;3.60;;;9.80;99.90;;;;;;5068543;28;20213;-71
2020/12/01 09:44:51;;;;;;;13.60;3.90;;;9.80;99.90;;;;;;5067998;28;20236;-72
2020/12/01 09:47:23;;;;;;;12.20;3.37;;;9.80;99.90;;;;;;5064340;28;20290;-73
2020/12/01 09:49:51;;;;;;;15.50;3.30;;;9.80;99.90;;;;;;5066038;28;20236;-70
2020/12/01 09:52:21;;;;;;;15.07;2.87;;;9.80;99.90;;;;;;5052680;28;20678;-73
2020/12/01 09:54:52;;;;;;;11.93;3.03;;;9.80;99.90;;;;;;5057993;28;20197;-71
2020/12/01 09:57:27;;;;;;;10.53;2.60;;;9.90;99.90;;;;;;5069207;28;20199;-69
2020/12/01 10:00:14;;;;;;;16.53;2.83;;;9.90;99.90;;;;;;5067218;28;20219;-73
2020/12/01 10:08:23;;;;;;;14.57;3.03;;;10.10;99.90;;;;;;5073046;28;20841;-70
2020/12/01 10:13:57;;;;;;;16.87;2.87;;;10.10;99.90;;;;;;5069950;28;20617;-71
2020/12/01 10:35:38;;;;;;;11.50;3.07;;;10.40;99.90;;;;;;5071535;28;20241;-69
2020/12/01 10:38:06;;;;;;;9.13;2.30;;;10.40;99.90;;;;;;5073511;28;20199;-69
2020/12/01 10:40:32;;;;;;;7.77;2.23;;;10.40;99.90;;;;;;5071842;28;20264;-70
2020/12/01 10:42:59;;;;;;;12.40;3.17;;;10.30;99.90;;;;;;5073882;28;20190;-70
2020/12/01 10:45:27;;;;;;;10.83;2.70;;;10.30;99.90;;;;;;5071453;28;20202;-70
2020/12/01 10:47:55;;;;;;;13.63;3.30;;;10.40;99.90;;;;;;5072252;28;20201;-69
2020/12/01 10:50:25;;;;;;;10.10;2.40;;;10.40;99.90;;;;;;5071107;28;20206;-70
2020/12/01 10:52:51;;;;;;;10.70;3.20;;;10.40;99.90;;;;;;5057640;28;20214;-71
2020/12/01 10:55:22;;;;;;;15.17;2.83;;;10.50;99.90;;;;;;5062448;28;20199;-70
2020/12/01 10:57:49;;;;;;;12.07;3.03;;;10.80;99.90;;;;;;5065530;28;20346;-71
2020/12/01 11:00:16;;;;;;;18.30;3.57;;;11.00;99.90;;;;;;5062846;28;20235;-71
2020/12/01 11:02:42;;;;;;;12.53;2.97;;;11.00;99.90;;;;;;5060974;28;20202;-70
2020/12/01 11:05:13;;;;;;;11.23;2.63;;;11.00;99.90;;;;;;5064227;28;20218;-70
2020/12/01 11:07:40;;;;;;;13.07;2.97;;;11.10;99.90;;;;;;5060907;28;20638;-70
2020/12/01 11:10:06;;;;;;;8.87;2.93;;;11.00;99.90;;;;;;5062837;28;20652;-72
2020/12/01 11:12:34;;;;;;;13.27;3.10;;;11.00;99.90;;;;;;5058244;28;20202;-73
2020/12/01 11:15:00;;;;;;;15.07;3.53;;;10.90;99.90;;;;;;5060105;28;20195;-72
2020/12/01 11:17:27;;;;;;;18.10;3.30;;;10.90;99.90;;;;;;5072161;28;20206;-72
2020/12/01 11:19:53;;;;;;;16.40;3.77;;;11.00;99.90;;;;;;5069060;28;20219;-72
2020/12/01 11:22:20;;;;;;;17.33;3.60;;;11.00;99.90;;;;;;5060814;28;20199;-73
2020/12/01 11:24:46;;;;;;;15.33;3.00;;;10.90;99.90;;;;;;5060928;28;20222;-73
2020/12/01 11:27:13;;;;;;;14.57;3.10;;;10.80;99.90;;;;;;5060840;28;20198;-75
2020/12/01 11:29:41;;;;;;;9.50;3.20;;;10.60;99.90;;;;;;5066235;28;20278;-73
2020/12/01 11:32:07;;;;;;;11.97;3.17;;;10.50;99.90;;;;;;5058162;28;20207;-69
2020/12/01 11:34:34;;;;;;;12.17;3.20;;;10.80;99.90;;;;;;5055272;28;20199;-69
2020/12/01 11:37:00;;;;;;;10.23;2.67;;;11.20;99.90;;;;;;5053350;28;20209;-74
2020/12/01 11:39:27;;;;;;;11.23;2.77;;;11.40;99.90;;;;;;5058954;28;20223;-71
2020/12/01 11:41:54;;;;;;;13.07;3.37;;;11.30;99.90;;;;;;5061361;28;20195;-71
2020/12/01 11:44:20;;;;;;;14.00;2.83;;;11.20;99.90;;;;;;5064963;28;22721;-71
2020/12/01 11:46:48;;;;;;;16.87;4.10;;;11.10;99.90;;;;;;5067654;28;20237;-70
2020/12/01 11:49:15;;;;;;;9.73;2.97;;;11.00;99.90;;;;;;5059985;28;20291;-70
2020/12/01 11:51:42;;;;;;;18.73;4.10;;;11.00;99.90;;;;;;5057460;28;20198;-71
2020/12/01 11:54:10;;;;;;;11.70;2.77;;;10.90;99.90;;;;;;5066328;28;20663;-69
2020/12/01 11:56:37;;;;;;;13.20;3.43;;;10.90;99.90;;;;;;5067512;28;20195;-72
2020/12/01 11:59:04;;;;;;;11.53;4.10;;;11.00;99.90;;;;;;5058340;28;20218;-71
2020/12/01 12:01:31;;;;;;;13.90;3.33;;;11.40;99.90;;;;;;5071995;28;20572;-72
2020/12/01 12:03:58;;;;;;;9.90;2.77;;;12.10;99.90;;;;;;5072229;28;20199;-71
2020/12/01 12:06:25;;;;;;;14.73;3.57;;;12.80;99.90;;;;;;5071956;28;20194;-70
2020/12/01 12:08:52;;;;;;;17.77;3.50;;;13.40;99.90;;;;;;5072232;28;20214;-71
2020/12/01 12:11:18;;;;;;;12.53;4.00;;;13.40;99.90;;;;;;5072527;28;20195;-70
2020/12/01 12:13:46;;;;;;;13.47;3.43;;;12.80;99.90;;;;;;5070901;28;20195;-70
2020/12/01 12:16:14;;;;;;;14.93;4.00;;;12.30;99.90;;;;;;5069402;28;20199;-71
2020/12/01 12:18:40;;;;;;;15.13;4.33;;;12.00;99.90;;;;;;5072246;28;20191;-71
2020/12/01 12:21:08;;;;;;;18.40;4.53;;;11.60;99.90;;;;;;5072280;28;20214;-70
2020/12/01 12:23:34;;;;;;;15.27;4.03;;;11.30;99.90;;;;;;5073206;28;20206;-70
2020/12/01 12:26:01;;;;;;;21.73;4.10;;;11.00;99.90;;;;;;5064267;28;20195;-72
2020/12/01 12:28:28;;;;;;;13.67;3.53;;;10.70;99.90;;;;;;5074165;28;20195;-70
2020/12/01 12:30:54;;;;;;;14.53;3.47;;;10.50;99.90;;;;;;5075798;28;20648;-71
2020/12/01 12:33:22;;;;;;;13.13;3.27;;;10.20;99.90;;;;;;5076207;28;20195;-71
2020/12/01 12:35:51;;;;;;;15.03;3.30;;;10.60;99.90;;;;;;5076315;28;20195;-70
2020/12/01 12:38:19;;;;;;;19.50;3.37;;;11.50;99.90;;;;;;5075760;28;20221;-72
2020/12/01 12:40:47;;;;;;;12.97;3.80;;;12.60;99.90;;;;;;5058960;28;20243;-71
2020/12/01 12:43:14;;;;;;;10.83;3.50;;;13.40;99.90;;;;;;5062491;28;20282;-71
2020/12/01 12:45:41;;;;;;;15.07;3.40;;;13.00;99.90;;;;;;5075668;28;20194;-72
2020/12/01 12:48:08;;;;;;;13.17;3.50;;;12.30;99.90;;;;;;5075370;28;20202;-72
2020/12/01 12:50:34;;;;;;;15.43;3.53;;;11.70;99.90;;;;;;5075585;28;20197;-71
2020/12/01 12:53:01;;;;;;;11.17;3.27;;;11.20;99.90;;;;;;5075880;28;20195;-70
2020/12/01 12:55:29;;;;;;;17.50;4.00;;;10.80;99.90;;;;;;5075372;28;20198;-70
2020/12/01 12:57:59;;;;;;;18.30;3.97;;;10.60;99.90;;;;;;5058050;28;20208;-71
2020/12/01 13:00:26;;;;;;;18.80;3.90;;;10.40;99.90;;;;;;5071691;28;20223;-70
2020/12/01 13:02:53;;;;;;;17.50;4.13;;;10.20;99.90;;;;;;5075501;28;20191;-71
2020/12/01 13:05:20;;;;;;;13.50;3.87;;;10.40;99.90;;;;;;5071175;28;20191;-71
2020/12/01 13:07:46;;;;;;;12.17;3.70;;;10.90;99.90;;;;;;5061201;28;20227;-70
2020/12/01 13:10:13;;;;;;;17.80;3.47;;;11.70;99.90;;;;;;5062407;28;20199;-71
2020/12/01 13:12:41;;;;;;;13.07;3.30;;;12.70;99.90;;;;;;5060593;28;20201;-69
2020/12/01 13:15:08;;;;;;;10.10;3.60;;;13.20;99.90;;;;;;5060695;28;20687;-70
2020/12/01 13:17:35;;;;;;;13.67;3.07;;;12.90;99.90;;;;;;5066607;28;20572;-71
2020/12/01 13:20:03;;;;;;;10.47;2.97;;;12.10;99.90;;;;;;5061019;28;20223;-70
2020/12/01 13:22:29;;;;;;;9.30;2.43;;;11.40;99.90;;;;;;5061109;28;20195;-70
2020/12/01 13:24:56;;;;;;;12.10;2.80;;;10.80;99.90;;;;;;5062130;28;20211;-70
2020/12/01 13:27:22;;;;;;;10.67;3.17;;;10.40;99.90;;;;;;5061468;28;20206;-72
2020/12/01 13:29:50;;;;;;;14.40;3.50;;;10.10;99.90;;;;;;5061145;28;20198;-71
2020/12/01 13:32:16;;;;;;;14.60;3.57;;;9.80;99.90;;;;;;5060414;28;20198;-71
2020/12/01 13:34:43;;;;;;;11.07;3.23;;;9.70;99.90;;;;;;5059577;28;20204;-71
2020/12/01 13:37:09;;;;;;;12.87;3.10;;;9.50;99.90;;;;;;5061820;28;22280;-70
2020/12/01 13:39:36;;;;;;;11.90;3.80;;;9.40;99.90;;;;;;5060933;28;20572;-73